Online since October of 2007


Bigbaywx more information Bigbaywx


mount mesnard more information Mount Mesnard


visit our other weather sites:

Template documentation
and downloads

And another site


CBI


from: Sep 22 2021 8:00 am until: 14:00 Beach Hazards Statement level: Moderate
Possible threat to life or property - responsive action should be taken soon (within next hour)
...BEACH HAZARDS STATEMENT IN EFFECT FROM 8 AM THIS MORNING TO 2 PM EDT THIS AFTERNOON... * WHAT...Dangerous swimming conditions are expected due to high wave action and strong rip currents. * WHERE...Marquette and Alger Counties. * WHEN...From 8 AM this morning to 2 PM EDT this afternoon.

nearby metar reports

   
KSAW - Sawyer, Michigan
updated: Sep 22 2021 1:47 pm
partly cloudy  
partly cloudy  
   wind: ne 15 mph<br />Gust to 15 mph
wind: ne 15 mph
Gust to 15 mph
temperature: 55.4°F
dew point: 64.4°F
humidity: 137%
barometer: 30.26 inHg
clouds: partly cloudy
visibility: 10 mi
cloud details: partly cloudy 853 m
KSAW 221747Z 04013G18KT 10SM SCT028 13/18 A3026
KESC - Escanaba, Michigan
updated: Sep 22 2021 1:56 pm
clear  
clear  
   wind: north 13.8 mph<br />Gust to 13.8 mph
wind: north 13.8 mph
Gust to 13.8 mph
temperature: 60.8°F
dew point: 39.2°F
humidity: 45%
barometer: 30.22 inHg
clouds: clear
visibility: 10 mi
cloud details: clear
KESC 221756Z AUTO 35012G20KT 330V030 10SM CLR 16/04 A3022 RMK AO2 SLP239 6//// T01560044 10156 20072 58013 PNO $
KIMT - Iron Mountain, MI
updated: Sep 22 2021 1:54 pm
few clouds  
few clouds  
   wind: nne 9.2 mph<br />Gust to 9.2 mph
wind: nne 9.2 mph
Gust to 9.2 mph
temperature: 60.8°F
dew point: 39.2°F
humidity: 45%
barometer: 30.24 inHg
clouds: few clouds
visibility: 10 mi
cloud details: few clouds 1372 m
KIMT 221754Z AUTO 03008G15KT 10SM FEW045 16/04 A3024 RMK AO2 SLP246 T01560044 10156 20056 58012
KGRB - Green Bay, WI
updated: Sep 22 2021 1:53 pm
clear  
clear  
   wind: ne 17.3 mph<br />Gust to 17.3 mph
wind: ne 17.3 mph
Gust to 17.3 mph
temperature: 60.8°F
dew point: 42.8°F
humidity: 52%
barometer: 30.22 inHg
clouds: clear
visibility: 10 mi
cloud details: clear
KGRB 221753Z 04015G23KT 10SM CLR 16/06 A3022 RMK AO2 PK WND 01027/1700 SLP234 T01610056 10161 20100 58012
KDET - Detroit, MI
updated: Sep 22 2021 1:53 pm
rain, mist, overcast  
rain, mist, overcast  
   wind: north 18.4 mph<br />Gust to 18.4 mph
wind: north 18.4 mph
Gust to 18.4 mph
temperature: 59°F
dew point: 55.4°F
humidity: 88%
barometer: 29.87 inHg
clouds: overcast
visibility: 3 mi
cloud details: mostly cloudy 366 m,
overcast 518 m
KDET 221753Z 36016G24KT 3SM RA BR BKN012 OVC017 15/13 A2987 RMK AO2 SLP114 6//// T01500128 10161 20144 58009 PNO
 

script developed by  Saratoga-weather.org adapted for the template by  Weerstation Leuven

you find our weather info also at:

Weather Underground

midwestern weather network

WeatherlinkIP

Citizen Weather Observer Program (CWOP)

equipment we use:

weather-station
Davis VP2

weather-program
Davis Weatherlink.Com

Davis VP2

Davis Weatherlink.Com